Hauptseite
METAR-TAF:

METAR-TAF

Flughäfen :

Flughafen Pau-Pyrenäen

Pau, Frankreich

Breite: 43-23N, Länge: 000-25W, Höhe: 188 m

Beobachtung

Neuester Wetterbericht von vor 36 Minuten, um 00:00 UTC
Wind 3 kt aus Ost/Südost
Temperatur 9°C
Luftfeuchtigkeit 93%
Luftdruck 1019 hPa
Sichtweite 10 km oder mehr
keine Wolken unter 1500 m und keine Kumulonimbus oder Gewitterwolken

METAR: LFBP 150000Z AUTO 12003KT CAVOK 09/08 Q1019 TEMPO 3000 BR

Zeit: 01:36 (00:36 UTC)

Prognose

Neuester Wetterbericht von vor 1 Stunde und 36 Minuten, um 23:00 UTC
Gültige Prognose vom 15 um 00 UTC bis 15 um 24 UTC
Wind 5 kt aus Südost
Sichtweite 10 km oder mehr
keine Wolken unter 1500 m und keine Kumulonimbus oder Gewitterwolken
Wahrscheinlichkeit 40%
vom 15 um 00 UTC bis 15 um 07 UTC
Sichtweite: 3000 m
feuchter Dunst

TAF: LFBP 142300Z 1500/1524 14005KT CAVOK PROB40 1500/1507 3000 BR

Wetterbeobachtungen und Prognosen von mehr als 4000 Flughäfen (METAR und TAF Bericht).

Die verfügbaren Stationen werden durch gelbe und rote Markierungen auf der Karte dargestellt.

Führen Sie die Maus auf sie, um den Namen der Station zu sehen.

Darauf klicken, um die Beobachtung von Wetterbeobachtungen und Prognosen zu sehen.

Um die Karte zu ändern : klicken Sie auf den grünen Tasten mit einem schwarzen Kreuz Zum Vergrößern, auf den grünen Button mit einem Gedankenstrich zu verkleinern, oder auf die grünen Pfeile für benachbarte Karten.


METAR-TAF: